createdAt,value
2019-05-20T02:17:17.868Z,3.58
2019-05-20T02:19:49.047Z,8.65
2019-05-20T02:22:20.253Z,6.67
2019-05-20T02:24:51.401Z,5.37
2019-05-20T02:27:23.997Z,4.65
2019-05-20T02:29:55.085Z,3.77
2019-05-20T02:32:26.238Z,4.15
2019-05-20T02:34:57.336Z,6.97
2019-05-20T02:37:28.496Z,4.67
2019-05-20T02:39:59.544Z,8.93
2019-05-20T02:42:30.593Z,3.37
2019-05-20T02:47:32.161Z,6.65
2019-05-20T02:50:03.556Z,5.75
2019-05-20T02:52:34.843Z,10.25
2019-05-20T07:59:46.125Z,12.05
2019-05-20T08:02:17.611Z,6.00
2019-05-20T08:04:48.825Z,4.60
2019-05-20T08:07:30.015Z,6.35
2019-05-20T08:12:52.416Z,5.60
2019-05-20T08:15:25.865Z,8.50
2019-05-20T08:17:57.159Z,4.90
2019-05-20T08:20:35.483Z,7.07
2019-05-20T08:23:06.687Z,6.47
2019-05-20T08:25:37.977Z,10.30
2019-05-20T08:28:39.725Z,7.87
2019-05-20T08:31:13.400Z,6.75
2019-05-20T08:33:44.528Z,8.18
2019-05-20T08:36:15.747Z,7.15
2019-05-20T08:38:46.908Z,5.15
2019-05-20T08:41:20.925Z,10.08
2019-05-20T08:44:10.252Z,5.28
2019-05-20T08:46:41.666Z,7.95
2019-05-20T08:49:16.355Z,7.58
2019-05-20T08:51:52.607Z,2.45
2019-05-20T08:54:30.577Z,7.70
2019-05-20T08:57:01.955Z,4.60
2019-05-20T08:59:50.707Z,7.00
2019-05-20T09:02:21.940Z,6.75
2019-05-20T09:04:53.261Z,6.55
2019-05-20T09:07:24.473Z,4.05
2019-05-20T09:09:55.999Z,8.60
2019-05-20T09:12:27.454Z,3.30
2019-05-20T09:17:39.097Z,2.33
2019-05-20T09:22:40.248Z,4.10
2019-05-20T09:25:12.916Z,8.08
2019-05-20T09:30:17.511Z,6.42
2019-05-20T09:36:41.074Z,10.15
2019-05-20T09:39:44.152Z,5.90
2019-05-20T09:42:18.145Z,5.30
2019-05-20T09:44:53.483Z,3.80
2019-05-20T09:47:27.216Z,5.20
2019-05-20T09:53:07.832Z,11.30
2019-05-20T09:55:38.863Z,5.37
2019-05-20T09:58:16.342Z,6.58
2019-05-20T10:00:51.456Z,8.48
2019-05-20T10:03:29.888Z,7.43
2019-05-20T10:06:00.989Z,9.63
2019-05-20T10:08:38.961Z,8.25
2019-05-20T10:14:41.268Z,8.38
2019-05-20T10:17:55.395Z,4.47
2019-05-20T10:22:16.583Z,7.33
2019-05-20T10:29:37.150Z,4.40
2019-05-20T10:35:08.878Z,6.85
2019-05-20T10:37:55.578Z,5.37
2019-05-20T10:41:00.021Z,10.43
2019-05-20T10:43:36.502Z,8.03
2019-05-20T10:46:43.628Z,13.05
2019-05-20T10:49:34.658Z,5.92
2019-05-20T10:52:21.146Z,9.23
2019-05-20T11:02:40.913Z,4.75
2019-05-20T11:05:15.675Z,16.50
2019-05-20T11:11:03.276Z,4.87
2019-05-20T11:13:39.661Z,7.75
2019-05-20T11:16:32.205Z,9.05
2019-05-20T11:19:05.226Z,7.30
2019-05-20T11:49:14.799Z,7.43
2019-05-20T11:51:52.182Z,6.33
2019-05-20T11:54:36.122Z,11.28
2019-05-20T11:57:14.648Z,2.75
2019-05-20T12:00:00.829Z,5.55
2019-05-20T12:02:47.118Z,4.55
2019-05-20T12:05:35.929Z,1.87
2019-05-20T12:08:11.303Z,14.18
2019-05-20T12:10:48.100Z,7.20
2019-05-20T12:19:02.611Z,5.15
2019-05-20T12:21:38.854Z,8.05
2019-05-20T12:24:10.132Z,12.75
2019-05-20T12:26:41.535Z,8.73
2019-05-20T12:29:14.183Z,8.93
2019-05-20T12:31:48.065Z,2.70
2019-05-20T12:49:22.065Z,5.90
2019-05-20T12:51:53.582Z,8.70
2019-05-20T12:54:24.931Z,4.95
2019-05-20T12:56:56.303Z,3.77
2019-05-20T12:59:27.603Z,6.20
2019-05-20T13:01:59.013Z,2.83
2019-05-20T13:04:31.259Z,7.87
2019-05-20T13:07:03.131Z,2.67
2019-05-20T13:09:35.597Z,5.28
2019-05-20T13:12:06.871Z,3.58
2019-05-20T13:14:40.828Z,4.95
2019-05-20T13:17:12.031Z,9.60
2019-05-20T13:23:53.985Z,5.33
2019-05-20T13:26:19.848Z,6.85
2019-05-20T13:29:01.211Z,5.78
2019-05-20T13:34:08.658Z,3.20
2019-05-20T13:38:40.317Z,21.93
2019-05-20T13:45:57.249Z,3.90
2019-05-20T13:48:41.982Z,7.60
2019-05-20T13:51:16.200Z,5.92
2019-05-20T13:53:52.802Z,14.58
2019-05-20T13:56:26.059Z,11.22
2019-05-20T13:59:03.219Z,16.12
2019-05-20T14:01:45.203Z,9.45
2019-05-20T14:04:24.534Z,8.43
2019-05-20T14:06:57.817Z,5.12
2019-05-20T14:09:41.028Z,8.70
2019-05-20T14:12:23.347Z,3.55
2019-05-20T14:14:58.025Z,7.75
2019-05-20T14:17:29.852Z,12.75
2019-05-20T14:20:07.929Z,16.50
2019-05-20T14:22:39.491Z,9.48
2019-05-20T14:25:10.998Z,8.60
2019-05-20T14:27:42.589Z,11.03
2019-05-20T14:30:19.645Z,7.92
2019-05-20T14:39:27.711Z,11.20
2019-05-20T14:41:59.296Z,7.30
2019-05-20T14:44:50.358Z,6.03
2019-05-20T14:47:30.385Z,8.13
2019-05-20T14:55:08.084Z,16.65
2019-05-20T15:00:29.777Z,9.13
2019-05-20T15:03:01.233Z,4.30
2019-05-20T15:05:33.428Z,12.53
2019-05-20T15:08:04.990Z,10.32
2019-05-20T15:10:36.856Z,12.60
2019-05-20T15:13:08.137Z,8.27
2019-05-20T15:15:39.390Z,10.72
2019-05-20T15:18:11.035Z,7.42
2019-05-20T15:20:42.238Z,7.10
2019-05-20T15:23:13.355Z,14.05
2019-05-20T15:25:44.718Z,22.80
2019-05-20T15:28:17.568Z,25.55
2019-05-20T15:30:52.098Z,24.70
2019-05-20T15:33:23.643Z,17.60
2019-05-20T16:06:11.410Z,30.80
2019-05-20T16:08:43.887Z,32.45
2019-05-20T16:11:17.144Z,28.40
2019-05-20T16:13:48.217Z,23.98
2019-05-20T16:16:19.668Z,35.10
2019-05-20T16:18:50.846Z,24.37
2019-05-20T16:21:22.064Z,23.10
2019-05-20T16:23:53.310Z,26.70
2019-05-20T16:26:24.519Z,38.15
2019-05-20T16:28:56.709Z,53.00
2019-05-20T16:31:28.210Z,52.08
2019-05-20T16:33:59.778Z,52.13
2019-05-20T16:36:32.181Z,59.60
2019-05-20T16:41:34.469Z,50.75
2019-05-20T16:44:05.823Z,41.98
2019-05-20T16:46:37.028Z,51.28
2019-05-20T16:49:08.305Z,50.67
2019-05-20T16:51:39.689Z,49.42
2019-05-20T16:54:10.837Z,37.42
2019-05-20T16:56:42.082Z,33.60
2019-05-20T16:59:14.579Z,47.83
2019-05-20T17:01:48.139Z,39.40
2019-05-20T17:04:19.509Z,43.23
2019-05-20T17:06:52.235Z,44.80
2019-05-20T17:11:54.085Z,34.88
2019-05-20T17:14:25.221Z,42.67
2019-05-20T17:16:56.472Z,25.70
2019-05-20T17:19:27.710Z,21.37
2019-05-20T17:21:58.933Z,17.32
2019-05-20T17:24:31.622Z,18.07
2019-05-20T17:27:03.630Z,12.73
2019-05-20T17:29:35.834Z,11.28
2019-05-20T17:32:07.667Z,11.05
2019-05-20T17:34:41.778Z,8.48
2019-05-20T17:37:12.967Z,5.12
2019-05-20T17:39:44.122Z,10.60
2019-05-20T17:42:15.433Z,6.83
2019-05-20T17:44:46.615Z,6.42
2019-05-20T17:47:18.036Z,9.68
2019-05-20T17:49:49.160Z,2.22
2019-05-20T17:52:20.406Z,5.75
2019-05-20T17:54:51.519Z,4.62
2019-05-20T17:57:22.801Z,2.45
2019-05-20T17:59:54.053Z,3.95
2019-05-20T18:02:25.322Z,4.20
2019-05-20T18:04:56.437Z,5.65
2019-05-20T18:07:27.640Z,7.37
2019-05-20T18:09:58.792Z,5.42
2019-05-20T18:12:30.036Z,7.15
2019-05-20T18:15:02.785Z,6.92
2019-05-20T18:20:06.338Z,7.17
2019-05-20T18:22:37.499Z,3.20
2019-05-20T18:25:08.690Z,2.95
2019-05-20T18:27:39.868Z,4.53
2019-05-20T18:30:12.951Z,7.50
2019-05-20T18:32:44.098Z,5.22
2019-05-20T18:35:15.222Z,9.40
2019-05-20T18:37:46.489Z,9.95
2019-05-20T18:40:17.817Z,5.70
2019-05-20T18:42:49.100Z,3.83
2019-05-20T18:45:20.269Z,8.68
2019-05-20T18:47:51.435Z,4.58
2019-05-20T18:50:22.540Z,6.40
2019-05-20T18:52:55.312Z,8.05
2019-05-20T18:57:56.870Z,10.13
2019-05-20T19:00:28.140Z,5.78
2019-05-20T19:03:06.916Z,6.80
2019-05-20T19:05:38.147Z,4.70
2019-05-20T19:08:09.371Z,5.90
2019-05-20T19:10:40.642Z,4.55
2019-05-20T19:13:12.972Z,2.72
2019-05-20T19:15:44.209Z,7.12
2019-05-20T19:18:15.334Z,7.83
2019-05-20T19:20:46.507Z,10.72
2019-05-20T19:23:17.678Z,5.50
2019-05-20T19:25:48.823Z,9.88
2019-05-20T19:28:21.041Z,4.55
2019-05-20T19:30:52.170Z,4.03
2019-05-20T19:33:23.306Z,7.20
2019-05-20T19:35:54.406Z,5.95
2019-05-20T19:38:26.665Z,11.90
2019-05-20T19:40:57.844Z,7.45
2019-05-20T19:43:29.120Z,6.60
2019-05-20T19:46:00.324Z,12.05
2019-05-20T19:48:31.464Z,14.38
2019-05-20T19:51:02.912Z,16.37
2019-05-20T19:53:34.078Z,7.45
2019-05-20T19:56:05.259Z,10.80
2019-05-20T19:58:36.557Z,16.25
2019-05-20T20:01:07.728Z,9.70
2019-05-20T20:03:40.288Z,4.33
2019-05-20T20:06:11.480Z,10.82
2019-05-20T20:08:42.633Z,6.08
2019-05-20T20:11:13.765Z,4.28
2019-05-20T20:13:44.951Z,6.37
2019-05-20T20:16:18.121Z,4.00
2019-05-20T20:18:49.957Z,7.12
2019-05-20T20:21:21.081Z,10.05
2019-05-20T20:23:52.249Z,6.05
2019-05-20T20:26:23.399Z,8.80
2019-05-20T20:28:54.567Z,3.42
2019-05-20T20:31:25.758Z,6.70
2019-05-20T20:33:56.874Z,8.53
2019-05-20T20:36:28.063Z,8.25
2019-05-20T20:39:00.205Z,7.65
2019-05-20T20:41:31.331Z,5.60
2019-05-20T20:44:02.463Z,10.98
2019-05-20T20:46:33.587Z,3.65
2019-05-20T20:49:04.742Z,8.15
2019-05-20T20:51:36.027Z,6.30
2019-05-20T20:54:07.251Z,4.97
2019-05-20T20:56:38.405Z,6.90
2019-05-20T20:59:10.028Z,6.80
2019-05-20T21:01:41.359Z,7.67
2019-05-20T21:04:12.481Z,11.05
2019-05-20T21:06:44.234Z,7.35
2019-05-20T21:09:15.422Z,10.82
2019-05-20T21:11:48.035Z,9.28
2019-05-20T21:16:49.773Z,7.90
2019-05-20T21:19:20.917Z,17.80
2019-05-20T21:21:52.111Z,20.92
2019-05-20T21:24:23.602Z,14.30
2019-05-20T21:26:54.730Z,9.70
2019-05-20T21:29:25.880Z,6.80
2019-05-20T21:31:57.023Z,7.12
2019-05-20T21:34:29.113Z,5.47
2019-05-20T21:37:01.331Z,10.32
2019-05-20T21:39:32.471Z,5.90
2019-05-20T21:42:03.616Z,7.33
2019-05-20T21:44:34.828Z,4.40
2019-05-20T21:47:05.912Z,6.40
2019-05-20T21:49:37.038Z,6.90
2019-05-20T21:52:08.103Z,11.85
2019-05-20T21:54:39.259Z,10.95
2019-05-20T21:57:10.365Z,9.68
2019-05-20T21:59:41.604Z,11.83
2019-05-20T22:02:13.755Z,13.18
2019-05-20T22:04:44.896Z,6.75
2019-05-20T22:07:16.035Z,5.55
2019-05-20T22:09:47.226Z,11.48
2019-05-20T22:12:19.349Z,10.25
2019-05-20T22:14:50.578Z,5.95
2019-05-20T22:17:21.741Z,15.53
2019-05-20T22:19:53.215Z,6.92
2019-05-20T22:22:44.514Z,11.97
2019-05-20T22:25:15.788Z,10.53
2019-05-20T22:27:46.879Z,10.55
2019-05-20T22:30:18.001Z,14.13
2019-05-20T22:32:49.198Z,19.23
2019-05-20T22:35:20.332Z,14.00
2019-05-20T22:37:51.475Z,12.18
2019-05-20T22:40:22.584Z,11.18
2019-05-20T22:42:53.716Z,11.43
2019-05-20T22:45:24.786Z,12.05
2019-05-20T22:47:55.923Z,15.32
2019-05-20T22:50:27.113Z,17.82
2019-05-20T22:52:58.271Z,12.15
2019-05-20T22:55:29.456Z,11.63
2019-05-20T22:58:00.866Z,14.80
2019-05-20T23:00:32.037Z,16.45
2019-05-20T23:03:03.148Z,14.13
2019-05-20T23:05:34.406Z,12.60
2019-05-20T23:08:05.611Z,10.60
2019-05-20T23:10:36.723Z,15.80
2019-05-20T23:13:07.852Z,10.30
2019-05-20T23:15:39.016Z,11.18
2019-05-20T23:18:10.041Z,10.80
2019-05-20T23:20:41.186Z,12.53
2019-05-20T23:23:12.335Z,9.55
2019-05-20T23:25:43.508Z,11.83
2019-05-20T23:28:14.681Z,13.15
2019-05-20T23:30:45.876Z,15.03
2019-05-20T23:33:17.026Z,13.30
2019-05-20T23:35:49.162Z,11.85
2019-05-20T23:38:20.165Z,14.85
2019-05-20T23:40:51.745Z,10.82
2019-05-20T23:43:22.840Z,8.43
2019-05-20T23:45:54.982Z,17.05
2019-05-20T23:48:27.966Z,12.80
2019-05-20T23:50:58.755Z,14.95
2019-05-20T23:53:29.855Z,10.65
2019-05-20T23:56:01.437Z,12.50
2019-05-20T23:58:32.509Z,10.93
